createdAt,value
2023-02-12T00:01:29.242Z,58.60
2023-02-12T00:03:57.957Z,45.80
2023-02-12T00:06:26.501Z,54.40
2023-02-12T00:08:56.369Z,55.00
2023-02-12T00:11:27.140Z,48.30
2023-02-12T00:13:56.433Z,49.70
2023-02-12T00:16:27.674Z,52.50
2023-02-12T00:18:57.426Z,48.20
2023-02-12T00:21:25.547Z,52.40
2023-02-12T00:23:53.626Z,50.60
2023-02-12T00:26:23.440Z,54.80
2023-02-12T00:28:52.857Z,51.70
2023-02-12T00:31:28.352Z,50.40
2023-02-12T00:33:59.948Z,52.60
2023-02-12T00:36:30.617Z,49.60
2023-02-12T00:38:59.768Z,48.30
2023-02-12T00:41:27.802Z,51.30
2023-02-12T00:43:56.537Z,50.80
2023-02-12T00:46:24.890Z,53.40
2023-02-12T00:48:52.899Z,54.80
2023-02-12T00:51:21.586Z,45.40
2023-02-12T00:53:51.178Z,52.80
2023-02-12T00:56:19.416Z,63.20
2023-02-12T01:01:19.095Z,46.80
2023-02-12T01:03:47.240Z,49.90
2023-02-12T01:06:15.204Z,47.00
2023-02-12T01:08:43.105Z,50.60
2023-02-12T01:11:14.602Z,49.00
2023-02-12T01:13:42.680Z,46.00
2023-02-12T01:16:17.526Z,47.90
2023-02-12T01:18:46.876Z,48.60
2023-02-12T01:21:25.073Z,52.10
2023-02-12T01:23:53.327Z,48.70
2023-02-12T01:26:22.115Z,50.30
2023-02-12T01:28:55.340Z,47.90
2023-02-12T01:31:26.752Z,52.10
2023-02-12T01:33:57.015Z,51.70
2023-02-12T01:36:26.466Z,50.20
2023-02-12T01:38:55.520Z,52.00
2023-02-12T01:41:29.715Z,60.60
2023-02-12T01:44:19.085Z,69.80
2023-02-12T01:46:50.433Z,59.00
2023-02-12T01:49:28.565Z,60.20
2023-02-12T01:52:08.372Z,57.40
2023-02-12T01:54:38.060Z,51.40
2023-02-12T01:57:08.549Z,57.70
2023-02-12T01:59:38.532Z,53.20
2023-02-12T02:02:07.225Z,56.10
2023-02-12T02:04:46.547Z,54.10
2023-02-12T02:07:15.063Z,49.70
2023-02-12T02:09:43.732Z,58.60
2023-02-12T02:12:30.700Z,51.70
2023-02-12T02:15:01.835Z,51.60
2023-02-12T02:18:01.390Z,49.90
2023-02-12T02:20:35.546Z,46.10
2023-02-12T02:23:15.546Z,50.60
2023-02-12T02:25:46.405Z,50.70
2023-02-12T02:28:32.677Z,48.90
2023-02-12T02:31:10.196Z,45.20
2023-02-12T02:34:02.917Z,48.60
2023-02-12T02:36:54.158Z,54.90
2023-02-12T02:39:37.140Z,53.80
2023-02-12T02:42:33.361Z,55.50
2023-02-12T02:45:16.158Z,58.50
2023-02-12T02:47:48.395Z,56.10
2023-02-12T02:50:20.581Z,55.80
2023-02-12T02:52:54.126Z,51.50
2023-02-12T02:55:26.963Z,49.60
2023-02-12T02:58:19.972Z,54.00
2023-02-12T03:00:59.238Z,49.20
2023-02-12T03:03:29.462Z,48.20
2023-02-12T03:06:04.511Z,46.50
2023-02-12T03:08:37.930Z,54.70
2023-02-12T03:11:38.870Z,55.70
2023-02-12T03:14:15.917Z,55.80
2023-02-12T03:16:51.796Z,52.30
2023-02-12T03:19:28.267Z,50.10
2023-02-12T03:21:56.325Z,54.60
2023-02-12T03:24:40.825Z,50.70
2023-02-12T03:27:41.318Z,59.00
2023-02-12T03:30:10.769Z,45.30
2023-02-12T03:32:54.981Z,47.40
2023-02-12T03:35:22.894Z,53.40
2023-02-12T03:38:02.728Z,56.40
2023-02-12T03:40:42.586Z,49.30
2023-02-12T03:43:25.930Z,55.20
2023-02-12T03:46:47.197Z,47.40
2023-02-12T03:49:22.144Z,67.00
2023-02-12T03:51:50.307Z,64.90
2023-02-12T03:54:21.558Z,65.20
2023-02-12T03:56:52.606Z,67.60
2023-02-12T03:59:23.357Z,64.50
2023-02-12T04:01:54.205Z,65.20
2023-02-12T04:04:26.931Z,63.80
2023-02-12T04:06:56.477Z,92.20
2023-02-12T04:09:27.372Z,75.80
2023-02-12T04:12:17.402Z,68.90
2023-02-12T04:14:51.513Z,57.00
2023-02-12T04:17:38.986Z,55.00
2023-02-12T04:20:42.625Z,55.60
2023-02-12T04:23:34.681Z,50.70
2023-02-12T04:26:23.092Z,63.00
2023-02-12T04:29:28.903Z,58.20
2023-02-12T04:32:02.916Z,50.70
2023-02-12T04:34:50.465Z,49.30
2023-02-12T04:37:37.358Z,59.50
2023-02-12T04:40:12.039Z,48.10
2023-02-12T04:42:45.918Z,50.70
2023-02-12T04:45:20.564Z,55.00
2023-02-12T04:47:48.659Z,54.40
2023-02-12T04:50:16.925Z,54.20
2023-02-12T04:52:45.300Z,51.60
2023-02-12T04:55:14.569Z,53.10
2023-02-12T04:57:42.914Z,53.20
2023-02-12T05:00:14.858Z,52.90
2023-02-12T05:02:43.021Z,54.60
2023-02-12T05:05:11.219Z,62.60
2023-02-12T05:07:39.449Z,50.60
2023-02-12T05:10:08.528Z,55.40
2023-02-12T05:12:36.642Z,53.00
2023-02-12T05:15:04.891Z,53.00
2023-02-12T05:17:32.879Z,51.60
2023-02-12T05:20:00.899Z,60.90
2023-02-12T05:22:28.860Z,54.80
2023-02-12T05:24:56.858Z,61.80
2023-02-12T05:27:24.896Z,56.80
2023-02-12T05:29:53.001Z,56.80
2023-02-12T05:32:20.950Z,53.70
2023-02-12T05:34:48.883Z,50.80
2023-02-12T05:37:16.804Z,53.00
2023-02-12T05:39:44.841Z,54.20
2023-02-12T05:42:12.783Z,58.00
2023-02-12T05:44:40.805Z,53.50
2023-02-12T05:47:08.857Z,54.50
2023-02-12T05:49:36.831Z,47.30
2023-02-12T05:52:05.043Z,54.80
2023-02-12T05:54:35.722Z,50.50
2023-02-12T05:57:07.460Z,58.40
2023-02-12T05:59:35.567Z,66.90
2023-02-12T06:02:03.604Z,70.50
2023-02-12T06:04:31.646Z,70.50
2023-02-12T06:07:00.302Z,67.00
2023-02-12T06:09:28.859Z,63.70
2023-02-12T06:11:57.048Z,61.40
2023-02-12T06:14:27.990Z,62.40
2023-02-12T06:17:00.091Z,62.80
2023-02-12T06:19:28.145Z,56.30
2023-02-12T06:21:56.291Z,60.60
2023-02-12T06:24:35.121Z,59.80
2023-02-12T06:27:07.013Z,62.90
2023-02-12T06:29:35.188Z,64.80
2023-02-12T06:32:03.474Z,57.80
2023-02-12T06:34:32.431Z,51.80
2023-02-12T06:37:06.079Z,49.10
2023-02-12T06:39:34.149Z,55.60
2023-02-12T06:42:02.182Z,59.20
2023-02-12T06:44:30.378Z,65.00
2023-02-12T06:46:59.300Z,61.60
2023-02-12T06:49:29.750Z,62.60
2023-02-12T06:51:57.804Z,64.80
2023-02-12T06:54:36.612Z,65.60
2023-02-12T06:57:13.522Z,59.70
2023-02-12T06:59:42.635Z,60.20
2023-02-12T07:02:11.727Z,73.10
2023-02-12T07:04:39.788Z,66.60
2023-02-12T07:07:07.905Z,71.40
2023-02-12T07:09:35.997Z,65.50
2023-02-12T07:12:04.311Z,73.60
2023-02-12T07:14:32.516Z,71.90
2023-02-12T07:17:03.913Z,58.10
2023-02-12T07:19:32.019Z,63.80
2023-02-12T07:22:00.121Z,63.80
2023-02-12T07:24:28.180Z,71.40
2023-02-12T07:26:58.577Z,69.30
2023-02-12T07:29:26.485Z,64.30
2023-02-12T07:31:54.589Z,61.60
2023-02-12T07:34:22.736Z,57.90
2023-02-12T07:36:50.810Z,63.30
2023-02-12T07:39:20.242Z,60.30
2023-02-12T07:41:48.484Z,62.30
2023-02-12T07:44:17.100Z,74.50
2023-02-12T07:46:48.669Z,78.00
2023-02-12T07:49:19.723Z,81.70
2023-02-12T07:51:49.760Z,76.10
2023-02-12T07:54:18.211Z,80.80
2023-02-12T07:56:49.026Z,68.70
2023-02-12T07:59:21.293Z,72.60
2023-02-12T08:04:21.990Z,71.20
2023-02-12T08:06:53.651Z,81.90
2023-02-12T08:09:25.308Z,82.40
2023-02-12T08:11:54.138Z,69.00
2023-02-12T08:14:22.691Z,74.00
2023-02-12T08:16:51.869Z,82.70
2023-02-12T08:19:24.040Z,64.10
2023-02-12T08:21:55.681Z,62.60
2023-02-12T08:24:24.692Z,66.70
2023-02-12T08:26:52.719Z,70.20
2023-02-12T08:29:24.321Z,67.00
2023-02-12T08:32:02.709Z,65.70
2023-02-12T08:34:35.152Z,66.10
2023-02-12T08:37:05.530Z,59.00
2023-02-12T08:39:34.210Z,66.30
2023-02-12T08:42:02.392Z,68.40
2023-02-12T08:44:30.508Z,55.50
2023-02-12T08:46:58.723Z,64.80
2023-02-12T08:49:29.487Z,64.50
2023-02-12T08:51:59.686Z,61.60
2023-02-12T08:54:29.806Z,66.90
2023-02-12T08:57:00.254Z,61.40
2023-02-12T08:59:30.190Z,64.80
2023-02-12T09:01:58.232Z,63.70
2023-02-12T09:04:28.580Z,64.00
2023-02-12T09:06:56.849Z,67.90
2023-02-12T09:09:36.949Z,64.90
2023-02-12T09:12:11.608Z,62.80
2023-02-12T09:14:40.245Z,66.40
2023-02-12T09:17:08.359Z,65.00
2023-02-12T09:19:37.081Z,62.20
2023-02-12T09:22:05.177Z,62.10
2023-02-12T09:24:33.390Z,59.90
2023-02-12T09:27:01.541Z,61.40
2023-02-12T09:29:32.709Z,57.70
2023-02-12T09:32:02.736Z,58.90
2023-02-12T09:34:30.878Z,60.30
2023-02-12T09:36:58.804Z,58.00
2023-02-12T09:39:30.574Z,59.60
2023-02-12T09:42:15.775Z,59.80
2023-02-12T09:45:12.985Z,59.40
2023-02-12T09:47:54.529Z,60.80
2023-02-12T09:50:37.657Z,59.80
2023-02-12T09:53:06.337Z,54.40
2023-02-12T09:55:35.462Z,60.50
2023-02-12T09:58:12.857Z,63.10
2023-02-12T10:00:41.240Z,59.90
2023-02-12T10:03:15.630Z,62.10
2023-02-12T10:05:52.056Z,65.60
2023-02-12T10:08:24.887Z,66.40
2023-02-12T10:11:05.271Z,64.50
2023-02-12T10:13:48.766Z,65.20
2023-02-12T10:16:30.322Z,61.30
2023-02-12T10:19:10.422Z,73.70
2023-02-12T10:22:02.374Z,63.30
2023-02-12T10:24:33.046Z,67.90
2023-02-12T10:27:16.732Z,75.20
2023-02-12T10:29:47.459Z,71.20
2023-02-12T10:32:18.051Z,71.00
2023-02-12T10:34:49.800Z,74.10
2023-02-12T10:37:27.227Z,73.40
2023-02-12T10:40:05.014Z,76.50
2023-02-12T10:42:42.869Z,71.10
2023-02-12T10:45:16.915Z,70.80
2023-02-12T10:47:46.664Z,72.10
2023-02-12T10:50:34.268Z,72.70
2023-02-12T10:53:05.591Z,65.20
2023-02-12T10:55:35.803Z,67.20
2023-02-12T10:58:05.629Z,61.20
2023-02-12T11:00:37.021Z,65.90
2023-02-12T11:03:13.696Z,65.70
2023-02-12T11:05:44.533Z,73.30
2023-02-12T11:08:27.517Z,63.50
2023-02-12T11:10:55.536Z,67.30
2023-02-12T11:13:26.242Z,64.40
2023-02-12T11:15:55.455Z,64.40
2023-02-12T11:18:26.550Z,69.40
2023-02-12T11:23:41.042Z,62.40
2023-02-12T11:26:18.774Z,69.60
2023-02-12T11:28:56.236Z,62.40
2023-02-12T11:31:33.283Z,57.10
2023-02-12T11:34:12.639Z,66.00
2023-02-12T11:36:44.050Z,67.40
2023-02-12T11:39:34.647Z,66.10
2023-02-12T11:42:05.191Z,66.00
2023-02-12T11:44:40.037Z,61.60
2023-02-12T11:47:12.242Z,62.80
2023-02-12T11:49:48.752Z,63.10
2023-02-12T11:52:21.852Z,59.10
2023-02-12T11:54:53.491Z,64.80
2023-02-12T11:57:39.728Z,61.90
2023-02-12T12:00:29.396Z,58.90
2023-02-12T12:03:29.954Z,63.50
2023-02-12T12:06:21.738Z,53.70
2023-02-12T12:09:00.429Z,55.30
2023-02-12T12:11:40.773Z,64.80
2023-02-12T12:14:32.096Z,52.20
2023-02-12T12:17:21.665Z,47.80
2023-02-12T12:20:11.431Z,52.20
2023-02-12T12:22:52.442Z,47.60
2023-02-12T12:28:34.630Z,50.60
2023-02-12T12:31:28.915Z,54.40
2023-02-12T12:34:17.261Z,52.50
2023-02-12T12:37:04.140Z,47.10
2023-02-12T12:39:48.838Z,44.60
2023-02-12T12:42:52.060Z,46.70
2023-02-12T12:45:20.984Z,43.50
2023-02-12T12:48:10.347Z,47.00
2023-02-12T12:51:16.864Z,36.30
2023-02-12T12:54:13.552Z,43.20
2023-02-12T12:56:41.699Z,50.60
2023-02-12T12:59:19.018Z,42.30
2023-02-12T13:02:28.201Z,45.10
2023-02-12T13:04:58.858Z,37.90
2023-02-12T13:07:28.819Z,46.40
2023-02-12T13:10:05.948Z,41.10
2023-02-12T13:16:05.095Z,40.90
2023-02-12T13:18:57.053Z,45.50
2023-02-12T13:21:56.092Z,46.80
2023-02-12T13:24:50.073Z,45.80
2023-02-12T13:27:28.537Z,46.90
2023-02-12T13:30:18.557Z,43.40
2023-02-12T13:33:07.288Z,39.40
2023-02-12T13:35:41.132Z,40.60
2023-02-12T13:38:15.591Z,46.20
2023-02-12T13:41:00.231Z,42.20
2023-02-12T13:43:38.821Z,41.60
2023-02-12T13:46:30.322Z,41.50
2023-02-12T13:49:07.533Z,35.10
2023-02-12T13:51:49.178Z,41.90
2023-02-12T13:54:29.834Z,41.70
2023-02-12T13:57:01.767Z,42.60
2023-02-12T13:59:35.793Z,40.40
2023-02-12T14:02:12.994Z,41.10
2023-02-12T14:04:54.518Z,40.30
2023-02-12T14:07:24.579Z,37.20
2023-02-12T14:09:52.710Z,38.10
2023-02-12T14:12:26.708Z,37.90
2023-02-12T14:15:11.296Z,40.20
2023-02-12T14:17:39.278Z,36.60
2023-02-12T14:20:30.812Z,36.20
2023-02-12T14:23:02.048Z,36.90
2023-02-12T14:25:38.878Z,39.60
2023-02-12T14:28:21.899Z,37.70
2023-02-12T14:31:31.803Z,42.70
2023-02-12T14:34:25.698Z,40.30
2023-02-12T14:37:13.639Z,41.10
2023-02-12T14:39:41.886Z,38.60
2023-02-12T14:42:09.915Z,36.90
2023-02-12T14:45:04.275Z,38.20
2023-02-12T14:47:32.197Z,36.40
2023-02-12T14:50:07.049Z,34.60
2023-02-12T14:52:40.883Z,35.70
2023-02-12T14:55:34.400Z,37.40
2023-02-12T14:58:06.531Z,33.90
2023-02-12T15:00:41.438Z,37.20
2023-02-12T15:03:12.476Z,37.00
2023-02-12T15:06:23.134Z,33.60
2023-02-12T15:09:01.393Z,38.80
2023-02-12T15:11:41.755Z,35.70
2023-02-12T15:14:35.084Z,32.70
2023-02-12T15:17:11.195Z,37.40
2023-02-12T15:20:06.129Z,33.30
2023-02-12T15:22:40.684Z,33.50
2023-02-12T15:25:16.559Z,46.10
2023-02-12T15:27:47.878Z,43.50
2023-02-12T15:33:03.718Z,35.80
2023-02-12T15:35:34.543Z,49.30
2023-02-12T15:38:03.456Z,40.90
2023-02-12T15:40:35.511Z,41.30
2023-02-12T15:43:06.449Z,43.10
2023-02-12T15:45:36.552Z,42.20
2023-02-12T15:48:14.405Z,39.00
2023-02-12T15:51:07.939Z,39.50
2023-02-12T15:53:36.548Z,49.00
2023-02-12T15:56:05.022Z,43.90
2023-02-12T15:58:41.416Z,50.80
2023-02-12T16:01:18.455Z,47.60
2023-02-12T16:03:56.681Z,50.10
2023-02-12T16:06:27.357Z,57.40
2023-02-12T16:09:05.726Z,47.10
2023-02-12T16:11:34.412Z,52.20
2023-02-12T16:14:07.772Z,54.20
2023-02-12T16:16:50.726Z,53.80
2023-02-12T16:19:29.141Z,50.70
2023-02-12T16:22:04.112Z,49.40
2023-02-12T16:24:39.502Z,51.50
2023-02-12T16:27:17.202Z,49.70
2023-02-12T16:29:55.022Z,46.70
2023-02-12T16:32:37.839Z,42.20
2023-02-12T16:35:12.921Z,49.30
2023-02-12T16:37:56.374Z,53.50
2023-02-12T16:40:27.440Z,56.70
2023-02-12T16:43:22.818Z,50.60
2023-02-12T16:45:51.410Z,55.70
2023-02-12T16:48:25.038Z,59.30
2023-02-12T16:50:58.737Z,50.80
2023-02-12T16:53:31.869Z,51.80
2023-02-12T16:56:01.940Z,43.20
2023-02-12T16:58:30.012Z,45.20
2023-02-12T17:01:01.779Z,41.30
2023-02-12T17:03:30.076Z,51.90
2023-02-12T17:05:58.475Z,68.60
2023-02-12T17:08:27.974Z,54.70
2023-02-12T17:10:55.941Z,47.10
2023-02-12T17:13:23.946Z,42.00
2023-02-12T17:15:58.394Z,47.80
2023-02-12T17:18:26.643Z,42.70
2023-02-12T17:20:57.947Z,40.80
2023-02-12T17:23:26.865Z,36.60
2023-02-12T17:25:55.170Z,35.30
2023-02-12T17:28:25.163Z,37.80
2023-02-12T17:30:54.287Z,42.50
2023-02-12T17:33:22.904Z,38.40
2023-02-12T17:35:51.113Z,46.80
2023-02-12T17:38:19.090Z,41.80
2023-02-12T17:40:47.145Z,35.90
2023-02-12T17:43:15.164Z,35.40
2023-02-12T17:45:44.061Z,36.20
2023-02-12T17:48:13.854Z,34.10
2023-02-12T17:50:42.969Z,31.10
2023-02-12T17:53:11.704Z,38.00
2023-02-12T17:55:41.065Z,35.90
2023-02-12T17:58:09.382Z,35.30
2023-02-12T18:00:37.405Z,38.10
2023-02-12T18:03:05.375Z,33.80
2023-02-12T18:05:33.536Z,37.40
2023-02-12T18:08:03.585Z,45.00
2023-02-12T18:10:31.610Z,39.40
2023-02-12T18:12:59.548Z,36.00
2023-02-12T18:15:27.493Z,36.00
2023-02-12T18:17:55.499Z,39.00
2023-02-12T18:20:23.558Z,44.70
2023-02-12T18:22:51.579Z,48.00
2023-02-12T18:25:19.652Z,38.80
2023-02-12T18:27:47.601Z,42.70
2023-02-12T18:30:15.842Z,39.50
2023-02-12T18:32:43.728Z,43.10
2023-02-12T18:35:11.703Z,44.80
2023-02-12T18:37:43.255Z,38.20
2023-02-12T18:40:12.298Z,50.20
2023-02-12T18:42:40.268Z,47.60
2023-02-12T18:45:08.621Z,52.70
2023-02-12T18:47:36.850Z,53.00
2023-02-12T18:50:06.930Z,46.10
2023-02-12T18:52:38.074Z,46.60
2023-02-12T18:55:07.510Z,39.20
2023-02-12T18:57:35.649Z,36.80
2023-02-12T19:00:05.125Z,38.40
2023-02-12T19:02:33.437Z,38.80
2023-02-12T19:05:02.016Z,37.20
2023-02-12T19:07:30.074Z,52.90
2023-02-12T19:09:57.951Z,56.50
2023-02-12T19:12:26.266Z,62.10
2023-02-12T19:14:54.398Z,63.10
2023-02-12T19:17:22.423Z,55.40
2023-02-12T19:19:51.464Z,57.80
2023-02-12T19:22:19.402Z,56.20
2023-02-12T19:24:51.426Z,68.10
2023-02-12T19:27:19.335Z,67.60
2023-02-12T19:29:47.600Z,65.90
2023-02-12T19:32:15.640Z,66.70
2023-02-12T19:34:44.209Z,62.50
2023-02-12T19:37:13.940Z,87.80
2023-02-12T19:39:42.038Z,103.50
2023-02-12T19:42:12.283Z,84.40
2023-02-12T19:44:44.691Z,90.60
2023-02-12T19:47:12.993Z,91.30
2023-02-12T19:49:41.479Z,105.60
2023-02-12T19:52:11.229Z,109.60
2023-02-12T19:54:39.190Z,111.80
2023-02-12T19:57:09.461Z,114.10
2023-02-12T19:59:37.782Z,106.00
2023-02-12T20:02:05.776Z,103.40
2023-02-12T20:04:34.206Z,87.30
2023-02-12T20:07:02.460Z,92.10
2023-02-12T20:09:30.937Z,67.70
2023-02-12T20:11:59.858Z,54.70
2023-02-12T20:14:28.202Z,62.50
2023-02-12T20:16:58.777Z,62.60
2023-02-12T20:19:30.436Z,78.00
2023-02-12T20:22:01.677Z,75.90
2023-02-12T20:27:00.826Z,70.30
2023-02-12T20:29:29.007Z,79.60
2023-02-12T20:31:57.651Z,89.30
2023-02-12T20:34:25.958Z,96.60
2023-02-12T20:36:54.436Z,82.20
2023-02-12T20:39:22.942Z,84.20
2023-02-12T20:41:51.310Z,68.50
2023-02-12T20:44:24.447Z,62.40
2023-02-12T20:46:56.493Z,57.60
2023-02-12T20:49:25.708Z,60.60
2023-02-12T20:51:54.241Z,60.20
2023-02-12T20:54:22.441Z,49.20
2023-02-12T20:56:50.939Z,47.80
2023-02-12T20:59:20.425Z,55.00
2023-02-12T21:01:48.751Z,69.70
2023-02-12T21:04:18.665Z,70.10
2023-02-12T21:06:48.557Z,63.30
2023-02-12T21:09:18.891Z,74.60
2023-02-12T21:11:47.960Z,62.90
2023-02-12T21:14:24.786Z,56.30
2023-02-12T21:16:54.934Z,59.60
2023-02-12T21:19:23.797Z,61.40
2023-02-12T21:21:51.878Z,64.30
2023-02-12T21:24:24.287Z,62.40
2023-02-12T21:26:54.330Z,62.60
2023-02-12T21:29:22.404Z,54.20
2023-02-12T21:31:51.412Z,60.50
2023-02-12T21:34:21.947Z,53.40
2023-02-12T21:36:52.699Z,50.50
2023-02-12T21:39:25.138Z,43.40
2023-02-12T21:41:56.616Z,39.50
2023-02-12T21:44:26.513Z,38.90
2023-02-12T21:46:55.065Z,35.00
2023-02-12T21:49:28.218Z,118.10
2023-02-12T21:52:02.577Z,136.30
2023-02-12T21:54:32.445Z,133.10
2023-02-12T21:57:00.981Z,132.90
2023-02-12T21:59:31.943Z,118.10
2023-02-12T22:02:01.940Z,116.10
2023-02-12T22:04:30.010Z,116.20
2023-02-12T22:06:59.687Z,99.20
2023-02-12T22:09:27.506Z,87.30
2023-02-12T22:11:55.716Z,106.70
2023-02-12T22:14:23.755Z,106.20
2023-02-12T22:16:51.968Z,133.30
2023-02-12T22:19:20.369Z,130.00
2023-02-12T22:21:51.752Z,118.40
2023-02-12T22:24:20.414Z,123.60
2023-02-12T22:26:48.611Z,118.90
2023-02-12T22:29:17.569Z,124.50
2023-02-12T22:31:47.154Z,127.40
2023-02-12T22:34:17.853Z,127.40
2023-02-12T22:36:47.211Z,115.20
2023-02-12T22:39:17.444Z,107.00
2023-02-12T22:41:46.360Z,106.20
2023-02-12T22:44:15.494Z,108.20
2023-02-12T22:46:44.811Z,104.20
2023-02-12T22:49:13.477Z,112.40
2023-02-12T22:51:41.860Z,108.40
2023-02-12T22:54:15.629Z,97.70
2023-02-12T22:56:44.754Z,104.00
2023-02-12T22:59:13.048Z,110.60
2023-02-12T23:01:42.081Z,113.10
2023-02-12T23:04:17.913Z,111.40
2023-02-12T23:06:45.820Z,97.60
2023-02-12T23:09:19.003Z,103.90
2023-02-12T23:11:48.029Z,100.10
2023-02-12T23:14:16.143Z,101.20
2023-02-12T23:16:44.409Z,101.20
2023-02-12T23:19:13.349Z,117.50
2023-02-12T23:21:41.793Z,110.40
2023-02-12T23:24:15.143Z,105.00
2023-02-12T23:26:43.336Z,104.90
2023-02-12T23:29:11.530Z,103.90
2023-02-12T23:31:39.763Z,98.70
2023-02-12T23:34:07.714Z,100.00
2023-02-12T23:36:35.618Z,95.80
2023-02-12T23:39:05.891Z,103.30
2023-02-12T23:41:34.095Z,98.20
2023-02-12T23:44:02.336Z,98.90
2023-02-12T23:46:30.653Z,99.90
2023-02-12T23:48:58.577Z,82.00
2023-02-12T23:51:26.566Z,85.70
2023-02-12T23:53:54.674Z,88.70
2023-02-12T23:56:22.884Z,85.90
2023-02-12T23:58:51.045Z,90.20
